sensor_id;sensor_type;location;lat;lon;timestamp;temperature;humidity
17381;DHT22;8808;52.478;13.378;2023-02-01T00:00:31;5.20;99.90
17381;DHT22;8808;52.478;13.378;2023-02-01T00:02:59;5.10;99.90
17381;DHT22;8808;52.478;13.378;2023-02-01T00:05:27;5.10;99.90
17381;DHT22;8808;52.478;13.378;2023-02-01T00:07:53;5.10;99.90
17381;DHT22;8808;52.478;13.378;2023-02-01T00:10:20;5.20;99.90
17381;DHT22;8808;52.478;13.378;2023-02-01T00:12:47;5.30;99.90
17381;DHT22;8808;52.478;13.378;2023-02-01T00:15:16;5.30;99.90
17381;DHT22;8808;52.478;13.378;2023-02-01T00:17:45;5.30;99.90
17381;DHT22;8808;52.478;13.378;2023-02-01T00:20:12;5.30;99.90
17381;DHT22;8808;52.478;13.378;2023-02-01T00:22:39;5.30;99.90
17381;DHT22;8808;52.478;13.378;2023-02-01T00:25:06;5.40;99.90
17381;DHT22;8808;52.478;13.378;2023-02-01T00:27:33;5.30;99.90
17381;DHT22;8808;52.478;13.378;2023-02-01T00:30:00;5.30;99.90
17381;DHT22;8808;52.478;13.378;2023-02-01T00:32:29;5.30;99.90
17381;DHT22;8808;52.478;13.378;2023-02-01T00:34:57;5.20;99.90
17381;DHT22;8808;52.478;13.378;2023-02-01T00:37:24;5.20;99.90
17381;DHT22;8808;52.478;13.378;2023-02-01T00:39:51;5.20;99.90
17381;DHT22;8808;52.478;13.378;2023-02-01T00:42:20;5.20;99.90
17381;DHT22;8808;52.478;13.378;2023-02-01T00:44:47;5.30;99.90
17381;DHT22;8808;52.478;13.378;2023-02-01T00:47:14;5.20;99.90
17381;DHT22;8808;52.478;13.378;2023-02-01T00:49:42;5.10;99.90
17381;DHT22;8808;52.478;13.378;2023-02-01T00:52:09;5.10;99.90
17381;DHT22;8808;52.478;13.378;2023-02-01T00:54:36;5.10;99.90
17381;DHT22;8808;52.478;13.378;2023-02-01T00:57:03;5.10;99.90
17381;DHT22;8808;52.478;13.378;2023-02-01T00:59:31;5.00;99.90
17381;DHT22;8808;52.478;13.378;2023-02-01T01:01:57;5.00;99.90
17381;DHT22;8808;52.478;13.378;2023-02-01T01:04:24;5.00;99.90
17381;DHT22;8808;52.478;13.378;2023-02-01T01:06:53;5.10;99.90
17381;DHT22;8808;52.478;13.378;2023-02-01T01:09:20;5.00;99.90
17381;DHT22;8808;52.478;13.378;2023-02-01T01:11:47;4.90;99.90
17381;DHT22;8808;52.478;13.378;2023-02-01T01:14:14;4.90;99.90
17381;DHT22;8808;52.478;13.378;2023-02-01T01:16:41;4.90;99.90
17381;DHT22;8808;52.478;13.378;2023-02-01T01:19:07;4.80;99.90
17381;DHT22;8808;52.478;13.378;2023-02-01T01:21:34;4.80;99.90
17381;DHT22;8808;52.478;13.378;2023-02-01T01:24:04;4.80;99.90
17381;DHT22;8808;52.478;13.378;2023-02-01T01:26:31;4.80;99.90
17381;DHT22;8808;52.478;13.378;2023-02-01T01:28:58;4.80;99.90
17381;DHT22;8808;52.478;13.378;2023-02-01T01:31:27;4.80;99.90
17381;DHT22;8808;52.478;13.378;2023-02-01T01:33:55;5.00;99.90
17381;DHT22;8808;52.478;13.378;2023-02-01T01:36:23;4.90;99.90
17381;DHT22;8808;52.478;13.378;2023-02-01T01:38:50;4.90;99.90
17381;DHT22;8808;52.478;13.378;2023-02-01T01:41:21;4.90;99.90
17381;DHT22;8808;52.478;13.378;2023-02-01T01:43:52;4.90;99.90
17381;DHT22;8808;52.478;13.378;2023-02-01T01:46:22;5.00;99.90
17381;DHT22;8808;52.478;13.378;2023-02-01T01:48:53;4.90;99.90
17381;DHT22;8808;52.478;13.378;2023-02-01T01:51:23;5.00;99.90
17381;DHT22;8808;52.478;13.378;2023-02-01T01:53:56;5.10;99.90
17381;DHT22;8808;52.478;13.378;2023-02-01T01:56:26;5.10;99.90
17381;DHT22;8808;52.478;13.378;2023-02-01T01:58:55;5.10;99.90
17381;DHT22;8808;52.478;13.378;2023-02-01T02:03:59;5.00;99.90
17381;DHT22;8808;52.478;13.378;2023-02-01T02:06:36;5.10;99.90
17381;DHT22;8808;52.478;13.378;2023-02-01T02:09:06;5.10;99.90
17381;DHT22;8808;52.478;13.378;2023-02-01T02:11:34;5.20;99.90
17381;DHT22;8808;52.478;13.378;2023-02-01T02:14:01;5.10;99.90
17381;DHT22;8808;52.478;13.378;2023-02-01T02:16:41;5.20;99.90
17381;DHT22;8808;52.478;13.378;2023-02-01T02:19:28;5.30;99.90
17381;DHT22;8808;52.478;13.378;2023-02-01T02:28:19;5.10;99.90
17381;DHT22;8808;52.478;13.378;2023-02-01T02:31:10;5.20;99.90
17381;DHT22;8808;52.478;13.378;2023-02-01T02:33:57;5.10;99.90
17381;DHT22;8808;52.478;13.378;2023-02-01T02:36:32;5.10;99.90
17381;DHT22;8808;52.478;13.378;2023-02-01T02:39:07;5.20;99.90
17381;DHT22;8808;52.478;13.378;2023-02-01T02:41:43;5.20;99.90
17381;DHT22;8808;52.478;13.378;2023-02-01T02:44:36;5.20;99.90
17381;DHT22;8808;52.478;13.378;2023-02-01T02:47:27;5.20;99.90
17381;DHT22;8808;52.478;13.378;2023-02-01T02:50:12;5.20;99.90
17381;DHT22;8808;52.478;13.378;2023-02-01T02:53:03;5.20;99.90
17381;DHT22;8808;52.478;13.378;2023-02-01T02:55:50;5.20;99.90
17381;DHT22;8808;52.478;13.378;2023-02-01T02:58:19;5.10;99.90
17381;DHT22;8808;52.478;13.378;2023-02-01T03:01:04;5.20;99.90
17381;DHT22;8808;52.478;13.378;2023-02-01T03:03:49;5.10;99.90
17381;DHT22;8808;52.478;13.378;2023-02-01T03:06:37;5.20;99.90
17381;DHT22;8808;52.478;13.378;2023-02-01T03:09:10;5.20;99.90
17381;DHT22;8808;52.478;13.378;2023-02-01T03:11:40;5.10;99.90
17381;DHT22;8808;52.478;13.378;2023-02-01T03:14:29;5.20;99.90
17381;DHT22;8808;52.478;13.378;2023-02-01T03:17:01;5.30;99.90
17381;DHT22;8808;52.478;13.378;2023-02-01T03:19:34;5.30;99.90
17381;DHT22;8808;52.478;13.378;2023-02-01T03:22:05;5.20;99.90
17381;DHT22;8808;52.478;13.378;2023-02-01T03:24:37;5.30;99.90
17381;DHT22;8808;52.478;13.378;2023-02-01T03:27:09;5.40;99.90
17381;DHT22;8808;52.478;13.378;2023-02-01T03:29:42;5.30;99.90
17381;DHT22;8808;52.478;13.378;2023-02-01T03:32:12;5.20;99.90
17381;DHT22;8808;52.478;13.378;2023-02-01T03:34:39;5.20;99.90
17381;DHT22;8808;52.478;13.378;2023-02-01T03:37:09;5.30;99.90
17381;DHT22;8808;52.478;13.378;2023-02-01T03:39:41;5.50;99.90
17381;DHT22;8808;52.478;13.378;2023-02-01T03:42:13;5.30;99.90
17381;DHT22;8808;52.478;13.378;2023-02-01T03:44:46;5.30;99.90
17381;DHT22;8808;52.478;13.378;2023-02-01T03:47:17;5.20;99.90
17381;DHT22;8808;52.478;13.378;2023-02-01T03:49:47;5.40;99.90
17381;DHT22;8808;52.478;13.378;2023-02-01T03:52:20;5.40;99.90
17381;DHT22;8808;52.478;13.378;2023-02-01T03:54:49;5.40;99.90
17381;DHT22;8808;52.478;13.378;2023-02-01T03:57:20;5.40;99.90
17381;DHT22;8808;52.478;13.378;2023-02-01T03:59:49;5.40;99.90
17381;DHT22;8808;52.478;13.378;2023-02-01T04:02:16;5.40;99.90
17381;DHT22;8808;52.478;13.378;2023-02-01T04:04:43;5.40;99.90
17381;DHT22;8808;52.478;13.378;2023-02-01T04:07:11;5.30;99.90
17381;DHT22;8808;52.478;13.378;2023-02-01T04:09:39;5.40;99.90
17381;DHT22;8808;52.478;13.378;2023-02-01T04:12:06;5.40;99.90
17381;DHT22;8808;52.478;13.378;2023-02-01T04:14:33;5.50;99.90
17381;DHT22;8808;52.478;13.378;2023-02-01T04:17:00;5.50;99.90
17381;DHT22;8808;52.478;13.378;2023-02-01T04:19:27;5.50;99.90
17381;DHT22;8808;52.478;13.378;2023-02-01T04:21:54;5.50;99.90
17381;DHT22;8808;52.478;13.378;2023-02-01T04:24:21;5.60;99.90
17381;DHT22;8808;52.478;13.378;2023-02-01T04:26:49;5.60;99.90
17381;DHT22;8808;52.478;13.378;2023-02-01T04:29:16;5.60;99.90
17381;DHT22;8808;52.478;13.378;2023-02-01T04:31:43;5.60;99.90
17381;DHT22;8808;52.478;13.378;2023-02-01T04:34:11;5.60;99.90
17381;DHT22;8808;52.478;13.378;2023-02-01T04:36:38;5.70;99.90
17381;DHT22;8808;52.478;13.378;2023-02-01T04:39:05;5.70;99.90
17381;DHT22;8808;52.478;13.378;2023-02-01T04:41:32;5.70;99.90
17381;DHT22;8808;52.478;13.378;2023-02-01T04:44:01;5.70;99.90
17381;DHT22;8808;52.478;13.378;2023-02-01T04:46:28;5.70;99.90
17381;DHT22;8808;52.478;13.378;2023-02-01T04:48:55;5.70;99.90
17381;DHT22;8808;52.478;13.378;2023-02-01T04:51:22;5.80;99.90
17381;DHT22;8808;52.478;13.378;2023-02-01T04:53:49;5.80;99.90
17381;DHT22;8808;52.478;13.378;2023-02-01T04:56:16;5.80;99.90
17381;DHT22;8808;52.478;13.378;2023-02-01T04:58:43;5.90;99.90
17381;DHT22;8808;52.478;13.378;2023-02-01T05:01:11;5.90;99.90
17381;DHT22;8808;52.478;13.378;2023-02-01T05:03:38;5.80;99.90
17381;DHT22;8808;52.478;13.378;2023-02-01T05:06:05;5.80;99.90
17381;DHT22;8808;52.478;13.378;2023-02-01T05:08:33;5.90;99.90
17381;DHT22;8808;52.478;13.378;2023-02-01T05:10:59;5.90;99.90
17381;DHT22;8808;52.478;13.378;2023-02-01T05:13:28;5.90;99.90
17381;DHT22;8808;52.478;13.378;2023-02-01T05:16:14;5.80;99.90
17381;DHT22;8808;52.478;13.378;2023-02-01T05:18:41;5.90;99.90
17381;DHT22;8808;52.478;13.378;2023-02-01T05:21:08;5.80;99.90
17381;DHT22;8808;52.478;13.378;2023-02-01T05:23:35;5.90;99.90
17381;DHT22;8808;52.478;13.378;2023-02-01T05:26:23;5.90;99.90
17381;DHT22;8808;52.478;13.378;2023-02-01T05:28:50;5.90;99.90
17381;DHT22;8808;52.478;13.378;2023-02-01T05:31:18;5.90;99.90
17381;DHT22;8808;52.478;13.378;2023-02-01T05:33:45;6.00;99.90
17381;DHT22;8808;52.478;13.378;2023-02-01T05:36:12;6.00;99.90
17381;DHT22;8808;52.478;13.378;2023-02-01T05:38:39;6.00;99.90
17381;DHT22;8808;52.478;13.378;2023-02-01T05:41:06;6.00;99.90
17381;DHT22;8808;52.478;13.378;2023-02-01T05:43:33;5.90;99.90
17381;DHT22;8808;52.478;13.378;2023-02-01T05:46:01;6.00;99.90
17381;DHT22;8808;52.478;13.378;2023-02-01T05:48:29;6.00;99.90
17381;DHT22;8808;52.478;13.378;2023-02-01T05:50:56;6.00;99.90
17381;DHT22;8808;52.478;13.378;2023-02-01T05:53:23;6.00;99.90
17381;DHT22;8808;52.478;13.378;2023-02-01T05:55:50;6.00;99.90
17381;DHT22;8808;52.478;13.378;2023-02-01T05:58:17;6.00;99.90
17381;DHT22;8808;52.478;13.378;2023-02-01T06:00:44;6.00;99.90
17381;DHT22;8808;52.478;13.378;2023-02-01T06:03:11;6.00;99.90
17381;DHT22;8808;52.478;13.378;2023-02-01T06:05:39;6.00;99.90
17381;DHT22;8808;52.478;13.378;2023-02-01T06:08:06;5.90;99.90
17381;DHT22;8808;52.478;13.378;2023-02-01T06:10:34;5.90;99.90
17381;DHT22;8808;52.478;13.378;2023-02-01T06:13:01;5.90;99.90
17381;DHT22;8808;52.478;13.378;2023-02-01T06:15:28;5.90;99.90
17381;DHT22;8808;52.478;13.378;2023-02-01T06:17:55;5.80;99.90
17381;DHT22;8808;52.478;13.378;2023-02-01T06:20:22;5.70;99.90
17381;DHT22;8808;52.478;13.378;2023-02-01T06:22:51;5.80;99.90
17381;DHT22;8808;52.478;13.378;2023-02-01T06:25:18;5.80;99.90
17381;DHT22;8808;52.478;13.378;2023-02-01T06:27:47;5.80;99.90
17381;DHT22;8808;52.478;13.378;2023-02-01T06:30:14;5.70;99.90
17381;DHT22;8808;52.478;13.378;2023-02-01T06:32:41;5.60;99.90
17381;DHT22;8808;52.478;13.378;2023-02-01T06:35:09;5.60;99.90
17381;DHT22;8808;52.478;13.378;2023-02-01T06:37:37;5.70;99.90
17381;DHT22;8808;52.478;13.378;2023-02-01T06:40:06;5.70;99.90
17381;DHT22;8808;52.478;13.378;2023-02-01T06:42:34;5.70;99.90
17381;DHT22;8808;52.478;13.378;2023-02-01T06:45:01;5.70;99.90
17381;DHT22;8808;52.478;13.378;2023-02-01T06:47:28;5.70;99.90
17381;DHT22;8808;52.478;13.378;2023-02-01T06:49:55;5.70;99.90
17381;DHT22;8808;52.478;13.378;2023-02-01T06:52:22;5.70;99.90
17381;DHT22;8808;52.478;13.378;2023-02-01T06:54:49;5.70;99.90
17381;DHT22;8808;52.478;13.378;2023-02-01T06:57:17;5.70;99.90
17381;DHT22;8808;52.478;13.378;2023-02-01T06:59:44;5.70;99.90
17381;DHT22;8808;52.478;13.378;2023-02-01T07:02:11;5.70;99.90
17381;DHT22;8808;52.478;13.378;2023-02-01T07:04:38;5.70;99.90
17381;DHT22;8808;52.478;13.378;2023-02-01T07:07:05;5.70;99.90
17381;DHT22;8808;52.478;13.378;2023-02-01T07:09:32;5.70;99.90
17381;DHT22;8808;52.478;13.378;2023-02-01T07:11:59;5.80;99.90
17381;DHT22;8808;52.478;13.378;2023-02-01T07:14:28;5.80;99.90
17381;DHT22;8808;52.478;13.378;2023-02-01T07:16:55;5.70;99.90
17381;DHT22;8808;52.478;13.378;2023-02-01T07:19:22;5.60;99.90
17381;DHT22;8808;52.478;13.378;2023-02-01T07:21:49;5.70;99.90
17381;DHT22;8808;52.478;13.378;2023-02-01T07:24:16;5.90;99.90
17381;DHT22;8808;52.478;13.378;2023-02-01T07:26:43;5.80;99.90
17381;DHT22;8808;52.478;13.378;2023-02-01T07:29:10;5.70;99.90
17381;DHT22;8808;52.478;13.378;2023-02-01T07:31:38;5.70;99.90
17381;DHT22;8808;52.478;13.378;2023-02-01T07:34:05;5.70;99.90
17381;DHT22;8808;52.478;13.378;2023-02-01T07:36:32;5.70;99.90
17381;DHT22;8808;52.478;13.378;2023-02-01T07:38:59;5.80;99.90
17381;DHT22;8808;52.478;13.378;2023-02-01T07:41:26;5.70;99.90
17381;DHT22;8808;52.478;13.378;2023-02-01T07:43:54;5.70;99.90
17381;DHT22;8808;52.478;13.378;2023-02-01T07:46:21;5.70;99.90
17381;DHT22;8808;52.478;13.378;2023-02-01T07:48:49;5.60;99.90
17381;DHT22;8808;52.478;13.378;2023-02-01T07:51:16;5.50;99.90
17381;DHT22;8808;52.478;13.378;2023-02-01T07:53:44;5.40;99.90
17381;DHT22;8808;52.478;13.378;2023-02-01T07:56:16;5.50;99.90
17381;DHT22;8808;52.478;13.378;2023-02-01T07:58:46;5.40;99.90
17381;DHT22;8808;52.478;13.378;2023-02-01T08:01:14;5.30;99.90
17381;DHT22;8808;52.478;13.378;2023-02-01T08:03:47;5.20;99.90
17381;DHT22;8808;52.478;13.378;2023-02-01T08:06:15;5.20;99.90
17381;DHT22;8808;52.478;13.378;2023-02-01T08:08:42;5.00;99.90
17381;DHT22;8808;52.478;13.378;2023-02-01T08:11:10;5.00;99.90
17381;DHT22;8808;52.478;13.378;2023-02-01T08:13:38;5.00;99.90
17381;DHT22;8808;52.478;13.378;2023-02-01T08:16:08;4.90;99.90
17381;DHT22;8808;52.478;13.378;2023-02-01T08:18:36;4.90;99.90
17381;DHT22;8808;52.478;13.378;2023-02-01T08:21:04;4.90;99.90
17381;DHT22;8808;52.478;13.378;2023-02-01T08:23:34;4.90;99.90
17381;DHT22;8808;52.478;13.378;2023-02-01T08:26:08;4.90;99.90
17381;DHT22;8808;52.478;13.378;2023-02-01T08:28:36;4.80;99.90
17381;DHT22;8808;52.478;13.378;2023-02-01T08:31:07;4.80;99.90
17381;DHT22;8808;52.478;13.378;2023-02-01T08:33:35;4.80;99.90
17381;DHT22;8808;52.478;13.378;2023-02-01T08:36:03;4.80;99.90
17381;DHT22;8808;52.478;13.378;2023-02-01T08:38:30;4.80;99.90
17381;DHT22;8808;52.478;13.378;2023-02-01T08:41:04;4.90;99.90
17381;DHT22;8808;52.478;13.378;2023-02-01T08:43:32;4.80;99.90
17381;DHT22;8808;52.478;13.378;2023-02-01T08:45:59;4.90;99.90
17381;DHT22;8808;52.478;13.378;2023-02-01T08:48:25;5.00;99.90
17381;DHT22;8808;52.478;13.378;2023-02-01T08:50:52;5.00;99.90
17381;DHT22;8808;52.478;13.378;2023-02-01T08:53:20;5.00;99.90
17381;DHT22;8808;52.478;13.378;2023-02-01T08:55:47;5.10;99.90
17381;DHT22;8808;52.478;13.378;2023-02-01T08:58:15;5.00;99.90
17381;DHT22;8808;52.478;13.378;2023-02-01T09:00:42;5.00;99.90
17381;DHT22;8808;52.478;13.378;2023-02-01T09:03:10;5.00;99.90
17381;DHT22;8808;52.478;13.378;2023-02-01T09:05:37;5.00;99.90
17381;DHT22;8808;52.478;13.378;2023-02-01T09:08:05;4.90;99.90
17381;DHT22;8808;52.478;13.378;2023-02-01T09:10:32;5.00;99.90
17381;DHT22;8808;52.478;13.378;2023-02-01T09:13:00;5.00;99.90
17381;DHT22;8808;52.478;13.378;2023-02-01T09:15:28;5.10;99.90
17381;DHT22;8808;52.478;13.378;2023-02-01T09:17:55;5.10;99.90
17381;DHT22;8808;52.478;13.378;2023-02-01T09:20:22;5.00;99.90
17381;DHT22;8808;52.478;13.378;2023-02-01T09:22:50;5.10;99.90
17381;DHT22;8808;52.478;13.378;2023-02-01T09:25:17;5.10;99.90
17381;DHT22;8808;52.478;13.378;2023-02-01T09:27:44;5.10;99.90
17381;DHT22;8808;52.478;13.378;2023-02-01T09:30:12;5.10;99.90
17381;DHT22;8808;52.478;13.378;2023-02-01T09:32:40;5.30;99.90
17381;DHT22;8808;52.478;13.378;2023-02-01T09:35:07;7.00;99.90
17381;DHT22;8808;52.478;13.378;2023-02-01T09:37:34;5.70;99.90
17381;DHT22;8808;52.478;13.378;2023-02-01T09:40:03;5.40;99.90
17381;DHT22;8808;52.478;13.378;2023-02-01T09:42:48;5.30;99.90
17381;DHT22;8808;52.478;13.378;2023-02-01T09:45:24;5.20;99.90
17381;DHT22;8808;52.478;13.378;2023-02-01T09:47:57;5.10;99.90
17381;DHT22;8808;52.478;13.378;2023-02-01T09:50:32;5.40;99.90
17381;DHT22;8808;52.478;13.378;2023-02-01T09:53:02;5.20;99.90
17381;DHT22;8808;52.478;13.378;2023-02-01T09:55:35;5.10;99.90
17381;DHT22;8808;52.478;13.378;2023-02-01T09:58:07;5.10;99.90
17381;DHT22;8808;52.478;13.378;2023-02-01T10:00:36;5.20;99.90
17381;DHT22;8808;52.478;13.378;2023-02-01T10:03:10;5.20;99.90
17381;DHT22;8808;52.478;13.378;2023-02-01T10:05:48;5.20;99.90
17381;DHT22;8808;52.478;13.378;2023-02-01T10:08:25;5.20;99.90
17381;DHT22;8808;52.478;13.378;2023-02-01T10:11:04;5.10;99.90
17381;DHT22;8808;52.478;13.378;2023-02-01T10:13:46;5.20;99.90
17381;DHT22;8808;52.478;13.378;2023-02-01T10:16:24;5.20;99.90
17381;DHT22;8808;52.478;13.378;2023-02-01T10:19:03;5.20;99.90
17381;DHT22;8808;52.478;13.378;2023-02-01T10:21:41;5.20;99.90
17381;DHT22;8808;52.478;13.378;2023-02-01T10:24:34;5.20;99.90
17381;DHT22;8808;52.478;13.378;2023-02-01T10:27:11;5.30;99.90
17381;DHT22;8808;52.478;13.378;2023-02-01T10:29:41;5.30;99.90
17381;DHT22;8808;52.478;13.378;2023-02-01T10:32:13;5.30;99.90
17381;DHT22;8808;52.478;13.378;2023-02-01T10:34:46;5.30;99.90
17381;DHT22;8808;52.478;13.378;2023-02-01T10:37:26;5.40;99.90
17381;DHT22;8808;52.478;13.378;2023-02-01T10:39:54;5.50;99.90
17381;DHT22;8808;52.478;13.378;2023-02-01T10:42:25;5.50;99.90
17381;DHT22;8808;52.478;13.378;2023-02-01T10:44:55;5.50;99.90
17381;DHT22;8808;52.478;13.378;2023-02-01T10:47:23;5.50;99.90
17381;DHT22;8808;52.478;13.378;2023-02-01T10:49:56;5.50;99.90
17381;DHT22;8808;52.478;13.378;2023-02-01T10:52:32;5.40;99.90
17381;DHT22;8808;52.478;13.378;2023-02-01T10:55:31;5.30;99.90
17381;DHT22;8808;52.478;13.378;2023-02-01T10:58:00;5.20;99.90
17381;DHT22;8808;52.478;13.378;2023-02-01T11:00:29;5.20;99.90
17381;DHT22;8808;52.478;13.378;2023-02-01T11:03:00;5.10;99.90
17381;DHT22;8808;52.478;13.378;2023-02-01T11:05:43;5.00;99.90
17381;DHT22;8808;52.478;13.378;2023-02-01T11:08:14;5.10;99.90
17381;DHT22;8808;52.478;13.378;2023-02-01T11:10:43;5.30;99.90
17381;DHT22;8808;52.478;13.378;2023-02-01T11:13:14;5.40;99.90
17381;DHT22;8808;52.478;13.378;2023-02-01T11:15:46;5.40;99.90
17381;DHT22;8808;52.478;13.378;2023-02-01T11:18:26;5.50;99.90
17381;DHT22;8808;52.478;13.378;2023-02-01T11:20:55;5.50;99.90
17381;DHT22;8808;52.478;13.378;2023-02-01T11:23:24;5.60;99.90
17381;DHT22;8808;52.478;13.378;2023-02-01T11:25:53;5.80;99.90
17381;DHT22;8808;52.478;13.378;2023-02-01T11:28:23;5.80;99.90
17381;DHT22;8808;52.478;13.378;2023-02-01T11:30:54;5.90;99.90
17381;DHT22;8808;52.478;13.378;2023-02-01T11:33:24;5.90;99.90
17381;DHT22;8808;52.478;13.378;2023-02-01T11:35:57;6.30;99.90
17381;DHT22;8808;52.478;13.378;2023-02-01T11:38:28;6.40;99.90
17381;DHT22;8808;52.478;13.378;2023-02-01T11:40:57;6.40;99.90
17381;DHT22;8808;52.478;13.378;2023-02-01T11:43:37;6.60;99.90
17381;DHT22;8808;52.478;13.378;2023-02-01T11:46:19;6.80;99.90
17381;DHT22;8808;52.478;13.378;2023-02-01T11:48:50;6.70;99.90
17381;DHT22;8808;52.478;13.378;2023-02-01T11:51:34;6.60;99.90
17381;DHT22;8808;52.478;13.378;2023-02-01T11:54:23;6.60;99.90
17381;DHT22;8808;52.478;13.378;2023-02-01T11:57:04;6.80;99.90
17381;DHT22;8808;52.478;13.378;2023-02-01T11:59:54;6.80;99.90
17381;DHT22;8808;52.478;13.378;2023-02-01T12:02:41;6.70;99.90
17381;DHT22;8808;52.478;13.378;2023-02-01T12:05:23;6.70;99.90
17381;DHT22;8808;52.478;13.378;2023-02-01T12:08:10;6.80;99.90
17381;DHT22;8808;52.478;13.378;2023-02-01T12:10:48;6.80;99.90
17381;DHT22;8808;52.478;13.378;2023-02-01T12:13:30;6.90;99.90
17381;DHT22;8808;52.478;13.378;2023-02-01T12:16:09;6.90;99.90
17381;DHT22;8808;52.478;13.378;2023-02-01T12:18:52;7.00;99.90
17381;DHT22;8808;52.478;13.378;2023-02-01T12:21:36;6.90;99.90
17381;DHT22;8808;52.478;13.378;2023-02-01T12:27:28;6.90;99.90
17381;DHT22;8808;52.478;13.378;2023-02-01T12:30:10;6.90;99.90
17381;DHT22;8808;52.478;13.378;2023-02-01T12:32:50;6.80;99.90
17381;DHT22;8808;52.478;13.378;2023-02-01T12:35:47;6.80;99.90
17381;DHT22;8808;52.478;13.378;2023-02-01T12:38:31;6.80;99.90
17381;DHT22;8808;52.478;13.378;2023-02-01T12:41:12;6.90;99.90
17381;DHT22;8808;52.478;13.378;2023-02-01T12:43:46;6.90;99.90
17381;DHT22;8808;52.478;13.378;2023-02-01T12:46:16;6.80;99.90
17381;DHT22;8808;52.478;13.378;2023-02-01T12:48:54;6.80;99.90
17381;DHT22;8808;52.478;13.378;2023-02-01T12:51:26;6.90;99.90
17381;DHT22;8808;52.478;13.378;2023-02-01T12:53:57;7.00;99.90
17381;DHT22;8808;52.478;13.378;2023-02-01T12:56:32;7.00;99.90
17381;DHT22;8808;52.478;13.378;2023-02-01T12:59:03;6.90;99.90
17381;DHT22;8808;52.478;13.378;2023-02-01T13:01:35;6.90;99.90
17381;DHT22;8808;52.478;13.378;2023-02-01T13:04:08;7.00;99.90
17381;DHT22;8808;52.478;13.378;2023-02-01T13:06:41;7.00;99.90
17381;DHT22;8808;52.478;13.378;2023-02-01T13:09:18;7.20;99.90
17381;DHT22;8808;52.478;13.378;2023-02-01T13:11:48;7.10;99.90
17381;DHT22;8808;52.478;13.378;2023-02-01T13:14:24;7.10;99.90
17381;DHT22;8808;52.478;13.378;2023-02-01T13:16:59;7.00;99.90
17381;DHT22;8808;52.478;13.378;2023-02-01T13:19:29;7.40;99.90
17381;DHT22;8808;52.478;13.378;2023-02-01T13:22:03;8.50;99.90
17381;DHT22;8808;52.478;13.378;2023-02-01T13:24:36;7.90;99.90
17381;DHT22;8808;52.478;13.378;2023-02-01T13:27:05;7.40;99.90
17381;DHT22;8808;52.478;13.378;2023-02-01T13:29:33;7.20;99.90
17381;DHT22;8808;52.478;13.378;2023-02-01T13:32:35;7.20;99.90
17381;DHT22;8808;52.478;13.378;2023-02-01T13:35:24;7.20;99.90
17381;DHT22;8808;52.478;13.378;2023-02-01T13:38:08;7.20;99.90
17381;DHT22;8808;52.478;13.378;2023-02-01T13:40:41;7.10;99.90
17381;DHT22;8808;52.478;13.378;2023-02-01T13:43:15;7.20;99.90
17381;DHT22;8808;52.478;13.378;2023-02-01T13:45:48;7.60;99.90
17381;DHT22;8808;52.478;13.378;2023-02-01T13:48:22;7.40;99.90
17381;DHT22;8808;52.478;13.378;2023-02-01T13:50:53;7.20;99.90
17381;DHT22;8808;52.478;13.378;2023-02-01T13:53:26;7.20;99.90
17381;DHT22;8808;52.478;13.378;2023-02-01T13:55:59;7.20;99.90
17381;DHT22;8808;52.478;13.378;2023-02-01T13:58:33;7.20;99.90
17381;DHT22;8808;52.478;13.378;2023-02-01T14:07:18;7.30;99.90
17381;DHT22;8808;52.478;13.378;2023-02-01T14:09:45;7.20;99.90
17381;DHT22;8808;52.478;13.378;2023-02-01T14:15:24;7.10;99.90
17381;DHT22;8808;52.478;13.378;2023-02-01T14:17:51;6.90;99.90
17381;DHT22;8808;52.478;13.378;2023-02-01T14:20:46;7.00;99.90
17381;DHT22;8808;52.478;13.378;2023-02-01T14:23:28;6.80;99.90
17381;DHT22;8808;52.478;13.378;2023-02-01T14:26:06;6.80;99.90
17381;DHT22;8808;52.478;13.378;2023-02-01T14:28:36;6.80;99.90
17381;DHT22;8808;52.478;13.378;2023-02-01T14:31:17;6.80;99.90
17381;DHT22;8808;52.478;13.378;2023-02-01T14:33:46;6.90;99.90
17381;DHT22;8808;52.478;13.378;2023-02-01T14:36:14;7.00;99.90
17381;DHT22;8808;52.478;13.378;2023-02-01T14:38:48;7.00;99.90
17381;DHT22;8808;52.478;13.378;2023-02-01T14:41:33;7.00;99.90
17381;DHT22;8808;52.478;13.378;2023-02-01T14:44:23;6.90;99.90
17381;DHT22;8808;52.478;13.378;2023-02-01T14:49:54;7.00;99.90
17381;DHT22;8808;52.478;13.378;2023-02-01T14:52:32;6.90;99.90
17381;DHT22;8808;52.478;13.378;2023-02-01T14:55:03;7.00;99.90
17381;DHT22;8808;52.478;13.378;2023-02-01T14:57:34;7.60;99.90
17381;DHT22;8808;52.478;13.378;2023-02-01T15:00:11;7.20;99.90
17381;DHT22;8808;52.478;13.378;2023-02-01T15:02:43;7.10;99.90
17381;DHT22;8808;52.478;13.378;2023-02-01T15:05:32;7.00;99.90
17381;DHT22;8808;52.478;13.378;2023-02-01T15:08:18;7.10;99.90
17381;DHT22;8808;52.478;13.378;2023-02-01T15:10:47;7.30;99.90
17381;DHT22;8808;52.478;13.378;2023-02-01T15:13:20;7.10;99.90
17381;DHT22;8808;52.478;13.378;2023-02-01T15:16:01;6.70;99.90
17381;DHT22;8808;52.478;13.378;2023-02-01T15:18:29;6.50;99.90
17381;DHT22;8808;52.478;13.378;2023-02-01T15:20:58;6.50;99.90
17381;DHT22;8808;52.478;13.378;2023-02-01T15:23:27;6.50;99.90
17381;DHT22;8808;52.478;13.378;2023-02-01T15:25:54;6.30;99.90
17381;DHT22;8808;52.478;13.378;2023-02-01T15:28:22;6.30;99.90
17381;DHT22;8808;52.478;13.378;2023-02-01T15:30:55;5.90;99.90
17381;DHT22;8808;52.478;13.378;2023-02-01T15:33:23;5.70;99.90
17381;DHT22;8808;52.478;13.378;2023-02-01T15:35:53;5.80;99.90
17381;DHT22;8808;52.478;13.378;2023-02-01T15:38:34;5.60;99.90
17381;DHT22;8808;52.478;13.378;2023-02-01T15:41:04;5.50;99.90
17381;DHT22;8808;52.478;13.378;2023-02-01T15:43:36;5.20;99.90
17381;DHT22;8808;52.478;13.378;2023-02-01T15:46:08;5.20;99.90
17381;DHT22;8808;52.478;13.378;2023-02-01T15:48:39;5.30;99.90
17381;DHT22;8808;52.478;13.378;2023-02-01T15:51:13;5.20;99.90
17381;DHT22;8808;52.478;13.378;2023-02-01T15:53:44;4.90;99.90
17381;DHT22;8808;52.478;13.378;2023-02-01T15:56:12;4.80;99.90
17381;DHT22;8808;52.478;13.378;2023-02-01T15:58:41;4.80;99.90
17381;DHT22;8808;52.478;13.378;2023-02-01T16:01:11;4.80;99.90
17381;DHT22;8808;52.478;13.378;2023-02-01T16:03:40;4.80;99.90
17381;DHT22;8808;52.478;13.378;2023-02-01T16:06:11;4.70;99.90
17381;DHT22;8808;52.478;13.378;2023-02-01T16:08:49;4.70;99.90
17381;DHT22;8808;52.478;13.378;2023-02-01T16:11:27;4.90;99.90
17381;DHT22;8808;52.478;13.378;2023-02-01T16:13:56;4.50;99.90
17381;DHT22;8808;52.478;13.378;2023-02-01T16:16:23;4.30;99.90
17381;DHT22;8808;52.478;13.378;2023-02-01T16:18:50;4.30;99.90
17381;DHT22;8808;52.478;13.378;2023-02-01T16:21:18;4.10;99.90
17381;DHT22;8808;52.478;13.378;2023-02-01T16:26:15;3.90;99.90
17381;DHT22;8808;52.478;13.378;2023-02-01T16:28:42;3.80;99.90
17381;DHT22;8808;52.478;13.378;2023-02-01T16:31:12;4.00;99.90
17381;DHT22;8808;52.478;13.378;2023-02-01T16:33:45;4.00;99.90
17381;DHT22;8808;52.478;13.378;2023-02-01T16:36:12;4.00;99.90
17381;DHT22;8808;52.478;13.378;2023-02-01T16:38:41;4.00;99.90